Logo AVAMET
Benvolgut visitant, si us plau, ingressa Recuperar contrasenya

Xàtiva Hostals

Dades diàries. Acumulats / Últims 30 dies disponibles

Data Temperatura (°C) Humitat rel. (%) Pressió rel. (hPa) Vent (km/h) Precipitació
Mínima Mitjana Màxima Amplitud
tèrmica
Mínima Mitjana Màxima Mínima Mitjana Màxima Predom. Mitjana Ràfega
màxima
Total
(mm)
Índex-n
Mínima Mitjana Màxima Mínima Mitjana Màxima n
0 a 1
P0 max
mm 5'
Dades mensuals acumulades fins l'últim dia disponible
05/2019 9,3 14,8 21,1 19,9 20,8 26,7 33,3 24,0 11 57 92 1.005 1.016 1.027   4,5 41,8 29,7
Dades anuals acumulades fins l'últim dia disponible
2019 0,8 10,1 21,1 14,9 12,4 21,1 33,3 32,5 11 54 100 996 1.021 1.037   4,3 54,0 289,8
Últims 30 dies disponibles
23-05-2019 14,6     22,7     32,4 17,8 21 54 85 1.015 1.018 1.021 SSE 2,8 24,5 0,0
22-05-2019 13,7     19,8     28,5 14,8 38 68 88 1.018 1.019 1.021 S 3,1 20,9 0,0
21-05-2019 15,3     19,0     26,8 11,5 32 71 92 1.015 1.017 1.020 S 4,0 33,1 23,7 0,44 4,60
20-05-2019 12,3     19,3     26,5 14,2 27 48 74 1.013 1.014 1.017 SSE 4,5 27,0 0,0
19-05-2019 11,6     17,9     24,4 12,8 20 50 78 1.011 1.013 1.015 S 2,6 23,4 0,0
18-05-2019 14,7     17,5     21,5 6,8 36 52 69 1.010 1.011 1.013 SSE 3,4 20,9 1,5 0,30
17-05-2019 15,9     20,4     25,2 9,3 22 41 81 1.005 1.008 1.013 SSO 7,4 40,3 0,0
16-05-2019 16,2     20,0     26,3 10,1 46 64 78 1.008 1.013 1.018 OSO 4,6 20,9 0,0
15-05-2019 15,8     20,7     26,9 11,1 32 53 75 1.013 1.014 1.018 SO 6,4 31,7 0,0
14-05-2019 14,6     21,5     30,0 15,4 20 50 80 1.015 1.020 1.024 S 5,5 30,6 0,0
13-05-2019 16,5     20,5     26,1 9,6 15 53 84 1.020 1.022 1.024 SO 4,6 23,4 0,0
12-05-2019 15,4     21,3     28,2 12,8 31 58 83 1.021 1.024 1.027 SO 3,6 19,4 0,0
11-05-2019 19,1     23,6     27,9 8,8 35 49 70 1.017 1.020 1.026 SO 5,0 22,0 0,0
10-05-2019 21,1     26,6     33,3 12,2 11 40 59 1.014 1.015 1.017 S 6,7 25,6 0,0
09-05-2019 19,7     23,7     29,9 10,2 31 48 63 1.013 1.015 1.017 S 6,1 33,1 0,0
08-05-2019 15,6     22,7     29,8 14,2 30 55 91 1.012 1.014 1.017 S 7,7 41,8 0,0
07-05-2019 15,2     20,5     28,9 13,7 32 65 84 1.015 1.018 1.021 SO 3,6 17,3 0,0
06-05-2019 11,4     17,0     23,9 12,5 41 67 82 1.018 1.020 1.021 SO 3,8 24,5 0,0
05-05-2019 11,5     17,6     24,7 13,2 32 57 80 1.014 1.016 1.020 S 4,0 27,0 0,0
04-05-2019 9,3     16,7     25,9 16,6 20 60 90 1.011 1.014 1.016 SSE 3,0 19,4 0,3
03-05-2019 10,7     14,8     20,9 10,2 53 69 90 1.011 1.014 1.017 S 3,2 24,5 3,6 0,19 0,60
02-05-2019 15,1     16,9     20,8 5,7 47 74 92 1.015 1.017 1.018 SSO 3,6 19,4 0,6
01-05-2019 14,3     17,9     24,6 10,3 47 69 84 1.014 1.016 1.019 SO 4,2 23,4 0,0
30-04-2019 14,6     18,8     25,1 10,5 41 67 85 1.016 1.018 1.020 OSO 4,2 23,4 0,0
29-04-2019 13,9     17,0     22,2 8,3 54 73 84 1.018 1.021 1.023 OSO 3,7 23,4 0,0
28-04-2019 12,8     18,1     26,1 13,3 32 63 84 1.021 1.024 1.027 SO 3,5 20,9 0,0
27-04-2019 11,0     18,6     25,7 14,7 23 47 73 1.024 1.026 1.028 SE 3,0 20,9 0,0
26-04-2019 11,7     18,0     25,1 13,4 21 40 65 1.020 1.023 1.027 SSO 6,1 28,1 0,0
25-04-2019 15,5     17,8     21,4 5,9 32 52 64 1.010 1.014 1.020 S 7,6 30,6 0,0
24-04-2019 10,5     16,4     23,8 13,3 30 47 61 1.006 1.010 1.012 SSE 10,9 35,6 0,0
Últims 13 mesos disponibles
04/2019 9,5 11,9 15,5 15,9 13,5 21,1 29,9 20,4 34 61 98 1.001 1.015 1.026 S 5,5 50,0 202,2
03/2019 5,9 9,8 15,5 15,3 12,4 21,7 28,6 22,7 27 48 90 1.015 1.024 1.032 N 3,9 37,8 57,9
02/2019 4,9 8,0 11,8 13,2 13,7 19,8 27,1 22,2 30 55 77 998 1.027 1.035 N 3,5 54,0 0,0
01/2019 0,8 7,1 13,3 11,6 13,1 17,6 22,2 21,4 35 51 70 1.005 1.021 1.033 N 3,9 54,0 0,0
12/2018 5,1 9,0 14,4 13,6 14,2 19,9 26,1 21,0 36 60 80 1.011 1.027 1.033 N 2,9 46,4 13,5
11/2018 7,1 12,0 16,0 15,0 14,0 18,9 25,5 18,4 42 66 97 1.003 1.017 1.025 S 4,4 40,0 120,0
10/2018 8,2 15,2 20,1 19,6 14,8 24,0 32,2 24,0 38 65 89 1.003 1.016 1.028 44,0 47,7
09/2018 15,6 20,3 23,3 25,1 22,9 29,8 35,6 20,0 50 68 86 1.014 1.020 1.029 39,0 91,2
08/2018 19,9 23,3 26,0 28,4 27,9 34,2 38,8 18,9 40 59 76 1.014 1.018 1.023 39,0 26,1
07/2018 21,2 23,1 25,1 28,3 28,2 34,8 40,0 18,8 26 57 73 1.011 1.016 1.021 37,0 4,8
06/2018 13,8 19,2 22,5 25,1 23,8 31,0 36,1 22,3 37 54 75 1.011 1.016 1.022 39,0 64,5
05/2018 9,8 14,9 18,2 20,6 21,5 26,6 30,3 20,5 39 54 74 1.011 1.016 1.019 37,0 6,3
04/2018 9,4 12,7 16,8 17,6 13,5 22,6 30,4 21,0 36 54 72 999 1.015 1.026 54,0 15,6
Tots els anys disponibles
2018 2,3 14,9 26,0 19,6 8,3 24,9 40,0 37,7 26 58 97 993 1.017 1.035 0,9 81,0 528,6
Temperatura (°C)
Humitat relativa (%)
Velocitat del vent i ràfega màxima (km/h)
Direcció del vent (°)
Pressió (hPa)
Precipitació (mm)
Nota sobre les dades: s'avisa a l'usuari de la provisionalitat i no oficialitat d'aquestes dades
Logo AVAMET blanc
Web allotjada a Sollutia
Llicència de Creative CommonsLa web d'AVAMET i els seus continguts estan subjectes a una llicència de
Reconeixement - No Comercial - Compartir igual
Properes estacions: Altea - Club Nàutic d'Altea (Soci), Ontinyent - El Pilar (Soci), Ares del Maestrat (Ajuntament Soci), Catadau - L'Altet (Inforatge)     - - - - -      Últimes estacions: Asp - Poliesportiu (Soci), Jacarilla - centro (MeteOrihuela), Elx - Maitino/Vallverda/Velarde/Matola/Ferriol (Soci TiempoElche.com), Orihuela - Playa Flamenca (MeteOrihuela), - - -